Time;durP1;ratioP1;P1;durP2;ratioP2;P2;SDS_P1;SDS_P2;PMS_P1;PMS_P2;Temp;Humidity;BMP_temperature;BMP_pressure;BME280_temperature;BME280_humidity;BME280_pressure;Samples;Min_cycle;Max_cycle;Signal;HPM_P1;HPM_P2
2021/09/10 00:02:01;;;;;;;16.83;11.93;;;16.50;99.90;;;;;;5032091;28;20025;-74
2021/09/10 00:04:27;;;;;;;12.85;11.57;;;16.50;99.90;;;;;;5031405;28;20616;-73
2021/09/10 00:06:53;;;;;;;14.88;12.20;;;16.40;99.90;;;;;;5031829;28;20025;-75
2021/09/10 00:09:18;;;;;;;12.82;11.43;;;16.50;99.90;;;;;;5031577;28;20030;-75
2021/09/10 00:11:44;;;;;;;17.45;13.50;;;16.40;99.90;;;;;;5030165;28;20025;-75
2021/09/10 00:14:10;;;;;;;13.25;11.73;;;16.50;99.90;;;;;;5031496;28;20049;-74
2021/09/10 00:16:36;;;;;;;17.08;14.35;;;16.50;99.90;;;;;;5030995;28;20283;-73
2021/09/10 00:19:03;;;;;;;15.50;13.90;;;16.50;99.90;;;;;;5031141;28;20516;-75
2021/09/10 00:21:28;;;;;;;19.90;14.82;;;16.50;99.90;;;;;;5031470;28;20439;-75
2021/09/10 00:23:54;;;;;;;17.98;15.30;;;16.50;99.90;;;;;;5032516;28;20483;-73
2021/09/10 00:26:20;;;;;;;16.55;14.07;;;16.40;99.90;;;;;;5033792;28;20116;-74
2021/09/10 00:28:45;;;;;;;16.75;14.88;;;16.40;99.90;;;;;;5035315;28;20033;-73
2021/09/10 00:31:11;;;;;;;18.77;15.93;;;16.30;99.90;;;;;;5035478;28;20108;-73
2021/09/10 00:33:37;;;;;;;19.80;16.30;;;16.30;99.90;;;;;;5035044;28;20030;-73
2021/09/10 00:36:03;;;;;;;17.00;15.20;;;16.20;99.90;;;;;;5034492;28;20053;-73
2021/09/10 00:38:30;;;;;;;17.17;15.55;;;16.20;99.90;;;;;;5033259;28;20480;-74
2021/09/10 00:40:56;;;;;;;18.77;15.30;;;16.20;99.90;;;;;;5034082;28;20029;-74
2021/09/10 00:43:22;;;;;;;18.35;15.38;;;16.20;99.90;;;;;;5035349;28;20627;-73
2021/09/10 00:45:48;;;;;;;16.17;14.18;;;16.10;99.90;;;;;;5034438;28;20036;-73
2021/09/10 00:48:15;;;;;;;20.17;16.23;;;16.10;99.90;;;;;;5033599;28;20025;-76
2021/09/10 00:50:41;;;;;;;17.50;15.68;;;16.00;99.90;;;;;;5035386;28;20026;-72
2021/09/10 00:53:08;;;;;;;20.17;15.15;;;16.10;99.90;;;;;;5035177;28;20487;-75
2021/09/10 00:55:35;;;;;;;17.33;15.60;;;16.10;99.90;;;;;;5037675;28;20033;-74
2021/09/10 00:58:01;;;;;;;20.83;16.23;;;16.00;99.90;;;;;;5033917;28;20080;-74
2021/09/10 01:00:27;;;;;;;19.02;16.92;;;15.90;99.90;;;;;;5033632;28;20447;-74
2021/09/10 01:02:53;;;;;;;21.17;16.60;;;15.90;99.90;;;;;;5034878;28;20021;-74
2021/09/10 01:05:19;;;;;;;18.88;16.17;;;15.90;99.90;;;;;;5032614;28;20033;-74
2021/09/10 01:07:47;;;;;;;17.02;15.43;;;15.80;99.90;;;;;;5033493;28;20077;-74
2021/09/10 01:10:14;;;;;;;19.73;14.90;;;15.80;99.90;;;;;;5033493;28;20055;-75
2021/09/10 01:12:41;;;;;;;18.08;14.75;;;15.80;99.90;;;;;;5035164;28;20026;-74
2021/09/10 01:15:08;;;;;;;15.48;13.93;;;15.70;99.90;;;;;;5033819;28;20402;-75
2021/09/10 01:17:35;;;;;;;19.15;14.75;;;15.70;99.90;;;;;;5035212;28;20395;-76
2021/09/10 01:20:01;;;;;;;16.02;14.45;;;15.70;99.90;;;;;;5034513;28;20018;-75
2021/09/10 01:22:27;;;;;;;18.77;14.98;;;15.70;99.90;;;;;;5034282;28;20036;-75
2021/09/10 01:25:12;;;;;;;19.95;15.52;;;15.70;99.90;;;;;;5033936;28;20038;-76
2021/09/10 01:27:40;;;;;;;18.92;16.38;;;15.80;99.90;;;;;;5034702;28;20156;-75
2021/09/10 01:30:06;;;;;;;21.63;15.85;;;15.80;99.90;;;;;;5032698;28;20028;-75
2021/09/10 01:32:32;;;;;;;18.73;16.83;;;15.80;99.90;;;;;;5034096;28;20484;-75
2021/09/10 01:34:58;;;;;;;16.60;14.88;;;15.70;99.90;;;;;;5033203;28;20495;-75
2021/09/10 01:37:23;;;;;;;17.17;15.38;;;15.70;99.90;;;;;;5032553;28;20021;-76
2021/09/10 01:39:49;;;;;;;17.42;15.27;;;15.70;99.90;;;;;;5033924;28;20033;-75
2021/09/10 01:42:15;;;;;;;20.38;16.92;;;15.70;99.90;;;;;;5033906;28;20036;-75
2021/09/10 01:44:40;;;;;;;23.08;17.10;;;15.70;99.90;;;;;;5033161;28;20026;-76
2021/09/10 01:47:06;;;;;;;19.02;17.02;;;15.70;99.90;;;;;;5033967;28;20033;-75
2021/09/10 01:49:32;;;;;;;18.52;16.70;;;15.70;99.90;;;;;;5032560;28;20416;-76
2021/09/10 01:51:57;;;;;;;18.50;16.60;;;15.70;99.90;;;;;;5033914;28;20045;-76
2021/09/10 01:54:24;;;;;;;19.35;17.38;;;15.70;99.90;;;;;;5034247;28;20079;-75
2021/09/10 01:56:49;;;;;;;19.45;17.10;;;15.70;99.90;;;;;;5033656;28;20049;-75
2021/09/10 01:59:15;;;;;;;20.25;17.38;;;15.70;99.90;;;;;;5033283;28;20534;-75
2021/09/10 02:01:40;;;;;;;22.25;18.52;;;15.60;99.90;;;;;;5033606;28;20057;-74
2021/09/10 02:04:06;;;;;;;23.15;18.73;;;15.60;99.90;;;;;;5033647;28;20053;-76
2021/09/10 02:06:32;;;;;;;21.27;17.80;;;15.60;99.90;;;;;;5031210;28;20128;-76
2021/09/10 02:08:57;;;;;;;24.35;18.40;;;15.60;99.90;;;;;;5033276;28;20079;-76
2021/09/10 02:11:23;;;;;;;21.98;17.23;;;15.60;99.90;;;;;;5033630;28;20030;-76
2021/09/10 02:13:48;;;;;;;20.60;17.52;;;15.60;99.90;;;;;;5033492;28;20034;-76
2021/09/10 02:16:14;;;;;;;17.50;15.63;;;15.60;99.90;;;;;;5033732;28;20032;-77
2021/09/10 02:18:40;;;;;;;24.50;16.70;;;15.50;99.90;;;;;;5033626;28;20021;-75
2021/09/10 02:21:06;;;;;;;19.63;17.73;;;15.60;99.90;;;;;;5032372;28;20365;-74
2021/09/10 02:23:33;;;;;;;18.27;16.38;;;15.60;99.90;;;;;;5033261;28;20032;-77
2021/09/10 02:25:58;;;;;;;18.40;16.38;;;15.60;99.90;;;;;;5032712;28;20048;-75
2021/09/10 02:28:25;;;;;;;19.40;15.93;;;15.60;99.90;;;;;;5032768;28;20038;-75
2021/09/10 02:30:51;;;;;;;20.60;16.83;;;15.70;99.90;;;;;;5033074;28;20387;-76
2021/09/10 02:33:16;;;;;;;18.63;15.82;;;15.70;99.90;;;;;;5033049;28;20053;-75
2021/09/10 02:35:42;;;;;;;19.90;16.45;;;15.70;99.90;;;;;;5032264;28;20099;-74
2021/09/10 02:38:08;;;;;;;19.48;16.35;;;15.80;99.90;;;;;;5031135;28;20025;-73
2021/09/10 02:40:34;;;;;;;18.73;16.60;;;15.90;99.90;;;;;;5032809;28;20049;-74
2021/09/10 02:43:00;;;;;;;20.70;17.23;;;15.90;99.90;;;;;;5032749;28;20491;-76
2021/09/10 02:45:25;;;;;;;22.80;16.85;;;15.90;99.90;;;;;;5031760;28;20041;-76
2021/09/10 02:47:51;;;;;;;20.13;16.45;;;15.90;99.90;;;;;;5032214;28;20038;-77
2021/09/10 02:50:17;;;;;;;19.05;17.05;;;15.90;99.90;;;;;;5032630;28;20029;-76
2021/09/10 02:52:42;;;;;;;18.45;16.50;;;15.80;99.90;;;;;;5032374;28;20533;-76
2021/09/10 02:55:09;;;;;;;18.70;16.80;;;15.80;99.90;;;;;;5031971;28;20025;-74
2021/09/10 02:57:34;;;;;;;17.23;15.50;;;15.60;99.90;;;;;;5032477;28;20025;-75
2021/09/10 03:00:00;;;;;;;17.67;15.88;;;15.50;99.90;;;;;;5031146;28;20068;-75
2021/09/10 03:02:26;;;;;;;18.40;16.58;;;15.60;99.90;;;;;;5032492;28;20021;-75
2021/09/10 03:04:52;;;;;;;24.85;17.85;;;15.50;99.90;;;;;;5031841;28;20030;-74
2021/09/10 03:07:18;;;;;;;23.20;19.38;;;15.50;99.90;;;;;;5032064;28;20021;-76
2021/09/10 03:09:44;;;;;;;21.67;18.67;;;15.50;99.90;;;;;;5032429;28;20032;-75
2021/09/10 03:12:10;;;;;;;20.35;18.08;;;15.40;99.90;;;;;;5032290;28;20069;-75
2021/09/10 03:14:35;;;;;;;20.58;18.48;;;15.40;99.90;;;;;;5031652;28;20033;-75
2021/09/10 03:17:01;;;;;;;23.85;20.35;;;15.30;99.90;;;;;;5032289;28;20036;-75
2021/09/10 03:19:28;;;;;;;27.60;20.90;;;15.30;99.90;;;;;;5032113;28;20041;-74
2021/09/10 03:21:54;;;;;;;28.70;20.15;;;15.20;99.90;;;;;;5032188;28;20049;-76
2021/09/10 03:24:20;;;;;;;24.95;20.35;;;15.10;99.90;;;;;;5031334;28;20060;-74
2021/09/10 03:26:46;;;;;;;24.00;19.45;;;15.10;99.90;;;;;;5031899;28;20088;-74
2021/09/10 03:29:12;;;;;;;23.17;19.88;;;15.10;99.90;;;;;;5032025;28;20021;-75
2021/09/10 03:31:38;;;;;;;24.40;20.17;;;15.10;99.90;;;;;;5032098;28;20152;-74
2021/09/10 03:34:04;;;;;;;22.70;19.98;;;15.00;99.90;;;;;;5032251;28;20092;-74
2021/09/10 03:36:30;;;;;;;23.40;20.15;;;15.00;99.90;;;;;;5031124;28;20072;-76
2021/09/10 03:38:55;;;;;;;26.85;20.50;;;15.00;99.90;;;;;;5030152;28;20055;-75
2021/09/10 03:41:21;;;;;;;26.33;20.35;;;14.90;99.90;;;;;;5031901;28;20034;-75
2021/09/10 03:43:52;;;;;;;21.75;19.40;;;14.90;99.90;;;;;;5032095;28;20431;-75
2021/09/10 03:46:18;;;;;;;22.60;20.17;;;14.90;99.90;;;;;;5031308;28;20018;-73
2021/09/10 03:48:44;;;;;;;22.75;18.95;;;14.90;99.90;;;;;;5032617;28;20029;-76
2021/09/10 03:51:09;;;;;;;20.00;17.45;;;14.80;99.90;;;;;;5032664;28;20025;-75
2021/09/10 03:53:35;;;;;;;20.02;17.90;;;14.80;99.90;;;;;;5031648;28;20510;-76
2021/09/10 03:56:01;;;;;;;21.17;17.65;;;14.80;99.90;;;;;;5031110;28;20759;-76
2021/09/10 03:58:26;;;;;;;20.75;17.60;;;14.80;99.90;;;;;;5030570;28;20444;-75
2021/09/10 04:00:52;;;;;;;20.42;16.60;;;14.80;99.90;;;;;;5031564;28;20025;-73
2021/09/10 04:03:18;;;;;;;17.90;16.00;;;14.70;99.90;;;;;;5031488;28;20025;-73
2021/09/10 04:05:43;;;;;;;16.77;15.07;;;14.70;99.90;;;;;;5031020;28;20112;-75
2021/09/10 04:08:09;;;;;;;18.17;15.27;;;14.70;99.90;;;;;;5031400;28;20033;-75
2021/09/10 04:10:35;;;;;;;16.73;14.95;;;14.70;99.90;;;;;;5031390;28;20068;-76
2021/09/10 04:13:00;;;;;;;20.27;17.25;;;14.70;99.90;;;;;;5031770;28;20479;-76
2021/09/10 04:15:27;;;;;;;19.38;16.63;;;14.80;99.90;;;;;;5030739;28;20108;-75
2021/09/10 04:17:53;;;;;;;18.92;16.98;;;14.80;99.90;;;;;;5031760;28;20021;-75
2021/09/10 04:20:19;;;;;;;19.17;17.20;;;14.80;99.90;;;;;;5023559;28;20018;-77
2021/09/10 04:22:44;;;;;;;20.85;17.67;;;14.80;99.90;;;;;;5030560;28;20071;-76
2021/09/10 04:25:10;;;;;;;22.75;18.88;;;14.70;99.90;;;;;;5028102;28;20399;-76
2021/09/10 04:27:36;;;;;;;22.55;19.20;;;14.70;99.90;;;;;;5025994;28;20038;-75
2021/09/10 04:30:03;;;;;;;23.38;19.02;;;14.70;99.90;;;;;;5024829;28;20388;-75
2021/09/10 04:32:29;;;;;;;23.00;19.40;;;14.70;99.90;;;;;;5023796;28;20018;-75
2021/09/10 04:34:55;;;;;;;23.13;20.15;;;14.60;99.90;;;;;;5028502;28;20034;-74
2021/09/10 04:37:21;;;;;;;25.17;20.63;;;14.70;99.90;;;;;;5030660;28;20035;-74
2021/09/10 04:39:47;;;;;;;25.40;21.20;;;14.70;99.90;;;;;;5022725;28;20033;-74
2021/09/10 04:42:12;;;;;;;26.48;21.25;;;14.60;99.90;;;;;;5021313;28;20028;-74
2021/09/10 04:44:38;;;;;;;23.40;20.17;;;14.60;99.90;;;;;;5016417;28;20036;-75
2021/09/10 04:47:03;;;;;;;23.85;21.35;;;14.60;99.90;;;;;;5023133;28;20057;-75
2021/09/10 04:49:29;;;;;;;25.05;22.08;;;14.50;99.90;;;;;;5027254;28;20394;-74
2021/09/10 04:51:55;;;;;;;25.02;21.17;;;14.60;99.90;;;;;;5020520;28;20502;-73
2021/09/10 04:54:21;;;;;;;23.25;20.00;;;14.60;99.90;;;;;;5018139;28;20038;-74
2021/09/10 04:56:46;;;;;;;23.25;19.85;;;14.70;99.90;;;;;;5020459;28;20631;-72
2021/09/10 04:59:13;;;;;;;26.88;20.13;;;14.70;99.90;;;;;;5019558;28;20109;-73
2021/09/10 05:01:38;;;;;;;21.00;18.90;;;14.70;99.90;;;;;;5021860;28;20021;-74
2021/09/10 05:04:04;;;;;;;22.40;20.02;;;14.70;99.90;;;;;;5027909;28;20077;-74
2021/09/10 05:06:30;;;;;;;22.08;19.25;;;14.80;99.90;;;;;;5028290;28;20067;-73
2021/09/10 05:08:59;;;;;;;20.92;18.40;;;14.80;99.90;;;;;;5030406;28;20109;-74
2021/09/10 05:11:24;;;;;;;21.13;17.73;;;14.80;99.90;;;;;;5033408;28;20057;-75
2021/09/10 05:13:50;;;;;;;20.52;18.42;;;14.80;99.90;;;;;;5034423;28;20067;-74
2021/09/10 05:16:16;;;;;;;19.20;17.20;;;14.90;99.90;;;;;;5033699;28;20022;-74
2021/09/10 05:18:42;;;;;;;21.45;17.92;;;14.90;99.90;;;;;;5033868;28;20029;-75
2021/09/10 05:21:08;;;;;;;19.52;17.48;;;15.00;99.90;;;;;;5034005;28;20029;-76
2021/09/10 05:23:34;;;;;;;23.83;17.75;;;15.10;99.90;;;;;;5033586;28;20033;-74
2021/09/10 05:25:59;;;;;;;18.67;16.77;;;15.30;99.90;;;;;;5033471;28;20102;-74
2021/09/10 05:28:25;;;;;;;21.67;17.88;;;15.30;99.90;;;;;;5033700;28;20041;-74
2021/09/10 05:30:51;;;;;;;20.15;17.95;;;15.40;99.90;;;;;;5033920;28;20030;-73
2021/09/10 05:33:17;;;;;;;21.80;18.00;;;15.50;99.90;;;;;;5033868;28;20029;-76
2021/09/10 05:35:43;;;;;;;24.55;18.50;;;15.70;99.90;;;;;;5033196;28;20383;-75
2021/09/10 05:38:09;;;;;;;19.17;17.25;;;15.70;99.90;;;;;;5033429;28;20048;-74
2021/09/10 05:40:35;;;;;;;18.83;15.57;;;15.80;99.90;;;;;;5034038;28;20026;-72
2021/09/10 05:43:00;;;;;;;18.75;16.75;;;15.80;99.90;;;;;;5033628;28;20435;-72
2021/09/10 05:45:26;;;;;;;17.90;15.93;;;15.80;99.90;;;;;;5033272;28;20026;-73
2021/09/10 05:47:52;;;;;;;19.40;16.13;;;15.80;99.90;;;;;;5034003;28;20100;-75
2021/09/10 05:50:17;;;;;;;18.80;15.70;;;15.90;99.90;;;;;;5033536;28;20025;-75
2021/09/10 05:52:43;;;;;;;20.60;16.55;;;16.00;99.90;;;;;;5033108;28;20035;-75
2021/09/10 05:55:09;;;;;;;16.65;14.85;;;16.10;99.90;;;;;;5032355;28;20025;-75
2021/09/10 05:57:35;;;;;;;21.48;15.68;;;16.20;99.90;;;;;;5032727;28;20045;-74
2021/09/10 06:00:01;;;;;;;21.10;15.80;;;16.30;99.90;;;;;;5033679;28;20543;-74
2021/09/10 06:02:26;;;;;;;16.20;14.20;;;16.40;99.90;;;;;;5033219;28;20423;-74
2021/09/10 06:04:52;;;;;;;19.38;14.65;;;16.40;99.90;;;;;;5032754;28;20036;-74
2021/09/10 06:07:18;;;;;;;18.35;13.80;;;16.60;99.90;;;;;;5033741;28;20017;-75
2021/09/10 06:09:43;;;;;;;13.55;12.15;;;16.70;99.90;;;;;;5033352;28;20025;-75
2021/09/10 06:12:09;;;;;;;15.23;13.65;;;16.70;99.90;;;;;;5033407;28;20029;-75
2021/09/10 06:14:34;;;;;;;15.60;12.13;;;16.80;99.90;;;;;;5032685;28;20025;-74
2021/09/10 06:17:01;;;;;;;16.05;13.63;;;17.00;99.90;;;;;;5031943;28;20476;-74
2021/09/10 06:19:28;;;;;;;14.57;13.13;;;17.10;99.90;;;;;;5032951;28;20495;-73
2021/09/10 06:21:54;;;;;;;14.00;12.60;;;17.20;99.90;;;;;;5032074;28;20032;-74
2021/09/10 06:24:19;;;;;;;16.92;12.35;;;17.10;99.90;;;;;;5031000;28;20025;-74
2021/09/10 06:26:45;;;;;;;13.05;11.55;;;17.20;99.90;;;;;;5023505;28;20165;-73
2021/09/10 06:29:11;;;;;;;15.15;12.52;;;17.30;99.90;;;;;;5014955;28;20099;-74
2021/09/10 06:31:39;;;;;;;16.83;12.15;;;17.40;99.90;;;;;;5025518;28;20022;-73
2021/09/10 06:34:05;;;;;;;15.48;11.70;;;17.50;99.90;;;;;;5012460;28;20029;-73
2021/09/10 06:36:31;;;;;;;15.75;10.95;;;17.50;99.90;;;;;;5025567;28;20077;-74
2021/09/10 06:38:56;;;;;;;14.20;11.57;;;17.70;99.90;;;;;;5035690;28;20033;-74
2021/09/10 06:41:22;;;;;;;15.27;11.35;;;18.00;99.90;;;;;;5033411;28;20030;-74
2021/09/10 06:43:48;;;;;;;13.55;10.07;;;18.20;99.90;;;;;;5032901;28;20025;-73
2021/09/10 06:46:13;;;;;;;18.25;11.38;;;18.40;99.90;;;;;;5032155;28;20021;-73
2021/09/10 06:48:40;;;;;;;13.40;10.25;;;18.50;99.90;;;;;;5032401;28;20072;-73
2021/09/10 06:51:06;;;;;;;12.20;10.27;;;18.80;99.90;;;;;;5032638;28;20388;-73
2021/09/10 06:53:33;;;;;;;19.00;10.50;;;18.80;99.90;;;;;;5032649;28;20026;-73
2021/09/10 06:55:59;;;;;;;21.73;10.75;;;18.60;99.90;;;;;;5032023;28;20025;-76
2021/09/10 06:58:25;;;;;;;15.48;10.82;;;18.50;99.90;;;;;;5032782;28;20032;-76
2021/09/10 07:00:51;;;;;;;14.13;10.15;;;18.60;99.90;;;;;;5033235;28;20108;-76
2021/09/10 07:03:16;;;;;;;13.77;9.93;;;18.60;99.90;;;;;;5031404;28;20026;-76
2021/09/10 07:05:42;;;;;;;12.88;9.15;;;18.70;99.90;;;;;;5031884;28;20033;-75
2021/09/10 07:08:08;;;;;;;15.13;10.65;;;18.70;99.90;;;;;;5032204;28;20053;-74
2021/09/10 07:10:33;;;;;;;13.57;9.57;;;18.90;99.90;;;;;;5032382;28;20383;-76
2021/09/10 07:12:59;;;;;;;10.15;9.10;;;19.00;99.90;;;;;;5030301;28;20484;-75
2021/09/10 07:15:25;;;;;;;13.27;9.73;;;19.00;99.90;;;;;;5021663;28;20516;-77
2021/09/10 07:17:50;;;;;;;11.00;9.90;;;19.00;99.90;;;;;;5014808;28;20032;-76
2021/09/10 07:20:16;;;;;;;11.23;9.98;;;19.10;99.90;;;;;;5013167;28;20025;-78
2021/09/10 07:22:42;;;;;;;13.02;9.23;;;19.00;99.90;;;;;;5012457;28;20049;-76
2021/09/10 07:25:08;;;;;;;10.75;8.80;;;19.20;99.90;;;;;;5011318;28;20113;-74
2021/09/10 07:27:34;;;;;;;10.30;8.52;;;19.50;99.90;;;;;;5012129;28;20125;-75
2021/09/10 07:29:59;;;;;;;12.55;8.93;;;19.50;99.90;;;;;;5043655;23;20095;-77
2021/09/10 07:32:25;;;;;;;10.45;9.27;;;19.40;99.90;;;;;;5043482;28;20017;-77
2021/09/10 07:34:51;;;;;;;10.70;8.98;;;19.60;99.90;;;;;;5049976;28;20471;-76
2021/09/10 07:37:16;;;;;;;10.20;9.18;;;19.70;99.90;;;;;;5051979;28;20520;-75
2021/09/10 07:39:42;;;;;;;10.45;8.50;;;19.80;99.90;;;;;;5051598;28;20059;-77
2021/09/10 07:42:08;;;;;;;10.50;8.70;;;20.00;99.90;;;;;;5050857;28;20021;-76
2021/09/10 07:44:34;;;;;;;14.52;8.60;;;20.10;99.90;;;;;;5030667;28;20068;-75
2021/09/10 07:46:59;;;;;;;9.85;8.85;;;20.30;99.90;;;;;;5032069;28;20498;-75
2021/09/10 07:49:25;;;;;;;9.68;7.90;;;20.00;99.90;;;;;;5031940;28;20452;-75
2021/09/10 07:51:51;;;;;;;9.68;8.00;;;20.00;99.90;;;;;;5032020;28;20036;-75
2021/09/10 07:54:17;;;;;;;11.73;8.77;;;20.30;99.90;;;;;;5030475;28;20032;-78
2021/09/10 07:56:43;;;;;;;8.43;7.30;;;20.40;99.90;;;;;;5029310;28;20674;-76
2021/09/10 07:59:08;;;;;;;11.40;7.93;;;20.60;99.90;;;;;;5029047;28;20029;-77
2021/09/10 08:01:34;;;;;;;9.10;7.50;;;20.80;99.90;;;;;;5030677;28;20191;-78
2021/09/10 08:04:01;;;;;;;9.70;7.28;;;21.20;99.90;;;;;;5032853;28;20033;-77
2021/09/10 08:06:27;;;;;;;8.93;7.15;;;21.30;99.90;;;;;;5032745;28;20083;-77
2021/09/10 08:08:53;;;;;;;9.27;7.50;;;21.50;99.90;;;;;;5032486;28;20033;-78
2021/09/10 08:11:18;;;;;;;8.20;7.40;;;21.50;99.90;;;;;;5032734;28;20021;-76
2021/09/10 08:13:44;;;;;;;8.63;7.18;;;21.80;99.90;;;;;;5032347;28;20026;-77
2021/09/10 08:16:10;;;;;;;7.80;6.97;;;22.00;99.90;;;;;;5033935;28;20030;-76
2021/09/10 08:18:35;;;;;;;7.78;6.63;;;22.10;99.90;;;;;;5033721;28;20022;-76
2021/09/10 08:21:01;;;;;;;12.23;6.60;;;21.70;99.90;;;;;;5030235;28;20547;-77
2021/09/10 08:23:27;;;;;;;7.40;6.68;;;21.90;99.90;;;;;;5031703;28;20028;-77
2021/09/10 08:25:53;;;;;;;8.48;6.95;;;22.30;99.90;;;;;;5031610;28;20104;-77
2021/09/10 08:28:19;;;;;;;11.48;7.15;;;22.40;99.90;;;;;;5031688;28;20025;-77
2021/09/10 08:30:48;;;;;;;12.77;7.10;;;22.00;99.90;;;;;;5031742;28;20037;-76
2021/09/10 08:33:14;;;;;;;10.63;7.13;;;22.30;99.90;;;;;;5032483;28;20530;-77
2021/09/10 08:35:41;;;;;;;15.43;7.18;;;22.50;99.90;;;;;;5031842;28;20029;-74
2021/09/10 08:38:06;;;;;;;11.13;6.85;;;22.30;99.90;;;;;;5031131;28;20025;-74
2021/09/10 08:40:33;;;;;;;7.90;6.68;;;22.30;99.90;;;;;;5030741;28;20477;-75
2021/09/10 08:42:59;;;;;;;10.63;6.60;;;22.30;99.90;;;;;;5030035;28;20017;-75
2021/09/10 08:45:26;;;;;;;7.72;6.68;;;22.40;99.90;;;;;;5032150;28;20076;-75
2021/09/10 08:47:52;;;;;;;9.50;6.88;;;22.40;99.90;;;;;;5035186;28;20571;-75
2021/09/10 08:50:17;;;;;;;13.00;6.78;;;22.40;99.90;;;;;;5035239;28;20065;-74
2021/09/10 08:52:44;;;;;;;7.68;6.50;;;22.20;99.90;;;;;;5035595;28;20053;-75
2021/09/10 08:55:11;;;;;;;8.38;6.30;;;22.50;99.90;;;;;;5034245;28;20032;-75
2021/09/10 08:57:48;;;;;;;10.63;6.40;;;22.80;99.90;;;;;;5035008;28;20434;-75
2021/09/10 09:00:14;;;;;;;11.27;6.63;;;22.60;99.90;;;;;;5034403;28;20025;-75
2021/09/10 09:02:40;;;;;;;10.98;6.50;;;22.30;99.90;;;;;;5033554;28;20134;-75
2021/09/10 09:05:06;;;;;;;15.45;7.03;;;22.60;99.90;;;;;;5027731;28;20104;-75
2021/09/10 09:07:32;;;;;;;10.25;6.47;;;22.90;99.90;;;;;;5032173;28;20033;-75
2021/09/10 09:09:59;;;;;;;8.32;6.10;;;23.40;99.90;;;;;;5034704;28;20031;-75
2021/09/10 09:12:30;;;;;;;62.28;12.30;;;23.50;99.90;;;;;;5034543;28;20475;-76
2021/09/10 09:15:05;;;;;;;12.63;6.18;;;23.60;99.90;;;;;;5034283;28;20124;-75
2021/09/10 09:17:35;;;;;;;7.38;5.40;;;23.80;99.90;;;;;;5034297;28;20026;-76
2021/09/10 09:20:14;;;;;;;6.60;6.00;;;24.10;99.90;;;;;;5034109;28;20037;-75
2021/09/10 09:22:57;;;;;;;7.45;6.78;;;23.90;99.90;;;;;;5034440;28;20032;-75
2021/09/10 09:25:27;;;;;;;6.70;5.50;;;24.10;99.90;;;;;;5032354;28;20048;-75
2021/09/10 09:27:53;;;;;;;11.35;6.45;;;24.00;99.90;;;;;;5035481;28;20384;-75
2021/09/10 09:30:37;;;;;;;6.43;5.82;;;23.50;99.90;;;;;;5035086;28;20079;-78
2021/09/10 09:33:03;;;;;;;7.10;5.88;;;23.60;99.90;;;;;;5035140;28;20026;-76
2021/09/10 09:35:30;;;;;;;7.53;6.38;;;24.00;99.90;;;;;;5031009;28;20081;-77
2021/09/10 09:37:56;;;;;;;6.95;5.32;;;24.30;99.90;;;;;;5034155;28;20022;-76
2021/09/10 09:40:32;;;;;;;6.65;5.97;;;24.60;99.90;;;;;;5034305;28;20029;-76
2021/09/10 09:42:57;;;;;;;9.05;5.68;;;24.40;99.90;;;;;;5034254;28;20065;-78
2021/09/10 09:45:24;;;;;;;5.72;5.15;;;24.90;99.90;;;;;;5033486;28;20347;-77
2021/09/10 09:47:50;;;;;;;8.38;5.72;;;25.00;99.90;;;;;;5033154;28;20026;-78
2021/09/10 09:50:19;;;;;;;6.13;5.45;;;25.40;99.90;;;;;;5034845;28;20026;-78
2021/09/10 09:52:47;;;;;;;8.60;5.50;;;25.70;99.90;;;;;;5034945;28;20085;-78
2021/09/10 09:55:13;;;;;;;7.00;5.72;;;25.60;99.90;;;;;;5036344;28;20033;-77
2021/09/10 09:57:39;;;;;;;8.18;5.95;;;25.20;99.90;;;;;;5035245;28;20101;-76
2021/09/10 10:00:07;;;;;;;5.65;4.93;;;24.60;99.90;;;;;;5034514;28;20025;-77
2021/09/10 10:02:36;;;;;;;7.25;5.50;;;25.00;99.90;;;;;;5036893;28;20064;-77
2021/09/10 10:05:02;;;;;;;5.75;5.30;;;24.80;99.90;;;;;;5034024;28;20546;-77
2021/09/10 10:07:57;;;;;;;5.65;5.15;;;25.20;99.90;;;;;;5042998;28;20018;-77
2021/09/10 10:10:26;;;;;;;5.55;4.95;;;25.30;99.90;;;;;;5047627;28;20048;-78
2021/09/10 10:12:54;;;;;;;5.97;5.03;;;26.50;99.90;;;;;;5046746;28;20022;-78
2021/09/10 10:15:28;;;;;;;5.40;4.88;;;27.70;99.90;;;;;;5044843;28;20048;-78
2021/09/10 10:17:56;;;;;;;8.10;5.28;;;28.60;98.90;;;;;;5049492;28;20025;-77
2021/09/10 10:20:57;;;;;;;13.05;5.15;;;26.80;99.90;;;;;;5048211;28;20021;-78
2021/09/10 10:23:41;;;;;;;5.33;4.90;;;26.40;99.90;;;;;;4964841;28;20033;-77
2021/09/10 10:26:35;;;;;;;13.38;5.68;;;26.70;99.90;;;;;;5036332;28;20041;-77
2021/09/10 10:29:13;;;;;;;11.20;5.50;;;25.90;99.90;;;;;;5035099;28;20038;-77
2021/09/10 10:31:57;;;;;;;6.50;5.90;;;25.20;99.90;;;;;;5046103;28;20037;-76
2021/09/10 10:34:24;;;;;;;6.38;5.43;;;24.70;99.90;;;;;;5043739;28;20026;-76
2021/09/10 10:36:49;;;;;;;7.47;5.78;;;25.00;99.90;;;;;;5053929;28;20033;-77
2021/09/10 10:39:26;;;;;;;14.68;6.05;;;24.90;99.90;;;;;;5047499;28;20029;-77
2021/09/10 10:42:00;;;;;;;7.82;6.15;;;25.50;99.90;;;;;;5044479;28;20026;-78
2021/09/10 10:44:35;;;;;;;6.97;5.45;;;25.40;99.90;;;;;;5051305;28;20033;-77
2021/09/10 10:47:16;;;;;;;5.20;4.65;;;25.50;99.90;;;;;;5051094;28;20106;-77
2021/09/10 10:49:47;;;;;;;11.00;5.57;;;26.30;99.90;;;;;;5050998;28;20059;-78
2021/09/10 10:52:37;;;;;;;7.43;5.78;;;27.40;99.90;;;;;;5044348;28;20030;-78
2021/09/10 10:55:29;;;;;;;6.95;4.78;;;28.20;98.30;;;;;;5033288;28;20079;-77
2021/09/10 10:58:25;;;;;;;6.50;4.85;;;28.70;99.10;;;;;;5033340;28;20030;-77
2021/09/10 11:01:01;;;;;;;6.72;4.80;;;28.70;97.70;;;;;;5034111;28;20041;-78
2021/09/10 11:03:27;;;;;;;5.55;4.43;;;29.40;96.70;;;;;;5034984;28;20105;-78
2021/09/10 11:05:55;;;;;;;5.10;4.60;;;29.30;96.00;;;;;;5033693;28;20133;-78
2021/09/10 11:08:42;;;;;;;5.13;4.72;;;30.00;96.00;;;;;;5033686;28;20032;-76
2021/09/10 11:11:10;;;;;;;5.10;4.57;;;30.60;94.80;;;;;;5033555;28;20044;-78
2021/09/10 11:13:41;;;;;;;5.18;4.68;;;29.80;94.50;;;;;;5033449;28;20026;-76
2021/09/10 11:16:10;;;;;;;6.50;5.03;;;29.70;95.10;;;;;;5032574;28;20033;-78
2021/09/10 11:18:37;;;;;;;7.38;5.15;;;28.50;97.00;;;;;;5033101;28;20025;-79
2021/09/10 11:21:06;;;;;;;5.78;4.95;;;28.10;96.80;;;;;;5032691;28;20029;-78
2021/09/10 11:23:39;;;;;;;4.78;4.30;;;27.40;96.70;;;;;;5031329;28;20029;-81
2021/09/10 11:26:07;;;;;;;5.28;4.78;;;27.80;97.30;;;;;;5021311;28;20021;-77
2021/09/10 11:28:36;;;;;;;10.60;5.55;;;28.70;96.10;;;;;;5023818;28;20040;-86
2021/09/10 11:31:03;;;;;;;6.03;4.88;;;28.40;94.70;;;;;;5032741;28;20091;-85
2021/09/10 11:33:29;;;;;;;6.90;5.90;;;27.60;97.20;;;;;;5031751;28;20030;-84
2021/09/10 11:35:55;;;;;;;6.10;5.40;;;27.30;96.50;;;;;;5028801;28;20022;-84
2021/09/10 11:38:23;;;;;;;7.15;5.30;;;27.60;96.70;;;;;;5026661;28;20040;-84
2021/09/10 11:40:52;;;;;;;7.50;5.15;;;27.70;95.50;;;;;;5025563;28;20045;-84
2021/09/10 11:43:29;;;;;;;5.90;5.30;;;27.80;95.30;;;;;;5022044;28;20026;-85
2021/09/10 11:45:56;;;;;;;5.50;5.00;;;27.90;95.30;;;;;;5029567;28;20096;-85
2021/09/10 11:48:26;;;;;;;8.38;5.30;;;28.60;95.20;;;;;;5024355;28;20022;-85
2021/09/10 11:51:03;;;;;;;5.55;4.72;;;29.70;94.60;;;;;;5017677;28;20095;-84
2021/09/10 11:53:34;;;;;;;6.20;5.15;;;30.10;93.10;;;;;;5027894;28;20635;-84
2021/09/10 11:56:07;;;;;;;5.65;5.22;;;29.00;92.90;;;;;;5029032;28;20021;-83
2021/09/10 11:58:42;;;;;;;5.70;5.18;;;27.30;95.80;;;;;;5020915;28;20038;-84
2021/09/10 12:01:12;;;;;;;8.23;5.30;;;27.30;95.90;;;;;;5026182;28;20104;-83
2021/09/10 12:03:51;;;;;;;9.63;5.43;;;27.70;96.00;;;;;;5027307;28;20026;-83
2021/09/10 12:06:32;;;;;;;5.75;5.18;;;28.00;95.20;;;;;;5033298;28;20021;-83
2021/09/10 12:09:16;;;;;;;7.20;5.40;;;27.40;96.60;;;;;;5034989;28;20045;-83
2021/09/10 12:11:55;;;;;;;7.03;5.07;;;27.90;96.80;;;;;;5032282;28;20381;-83
2021/09/10 12:14:35;;;;;;;5.78;5.07;;;27.40;96.10;;;;;;5027302;28;20419;-84
2021/09/10 12:17:12;;;;;;;7.55;5.07;;;27.70;96.20;;;;;;5031186;28;20021;-85
2021/09/10 12:19:55;;;;;;;8.48;5.32;;;27.70;95.10;;;;;;5031654;28;20109;-84
2021/09/10 12:22:49;;;;;;;5.70;5.20;;;27.20;96.20;;;;;;5030549;28;20029;-83
2021/09/10 12:25:36;;;;;;;8.07;5.32;;;27.30;96.30;;;;;;5033075;28;20033;-83
2021/09/10 12:28:09;;;;;;;5.82;5.32;;;26.60;98.00;;;;;;5044215;28;20033;-83
2021/09/10 12:30:40;;;;;;;5.80;5.30;;;27.20;97.60;;;;;;5043501;28;20048;-83
2021/09/10 12:33:09;;;;;;;5.78;5.28;;;26.70;96.70;;;;;;5032371;28;20017;-84
2021/09/10 12:35:35;;;;;;;24.73;6.60;;;26.70;97.90;;;;;;5038732;28;20022;-83
2021/09/10 12:38:06;;;;;;;6.32;5.20;;;27.00;97.30;;;;;;5036515;28;20030;-78